createdAt,value
2019-01-25T00:03:52.634Z,10.32
2019-01-25T00:08:55.266Z,10.40
2019-01-25T00:13:57.843Z,10.40
2019-01-25T00:19:00.517Z,10.34
2019-01-25T00:24:03.612Z,10.37
2019-01-25T00:29:06.267Z,10.30
2019-01-25T00:34:08.904Z,10.34
2019-01-25T00:39:11.580Z,10.39
2019-01-25T00:44:14.333Z,10.36
2019-01-25T00:49:16.810Z,10.42
2019-01-25T00:54:19.438Z,10.56
2019-01-25T00:59:21.988Z,10.49
2019-01-25T01:04:24.445Z,10.35
2019-01-25T01:09:26.996Z,10.36
2019-01-25T01:14:29.585Z,10.40
2019-01-25T01:19:32.105Z,10.38
2019-01-25T01:24:34.657Z,10.39
2019-01-25T01:29:37.394Z,10.37
2019-01-25T01:34:40.002Z,10.39
2019-01-25T01:39:42.561Z,10.37
2019-01-25T01:44:45.260Z,10.33
2019-01-25T01:49:47.908Z,10.33
2019-01-25T01:54:50.435Z,10.32
2019-01-25T01:59:53.121Z,10.27
2019-01-25T02:04:55.570Z,10.19
2019-01-25T02:09:58.026Z,10.22
2019-01-25T02:15:00.551Z,10.19
2019-01-25T02:20:04.802Z,10.19
2019-01-25T02:25:07.690Z,10.16
2019-01-25T02:30:13.457Z,10.16
2019-01-25T02:35:16.632Z,10.18
2019-01-25T02:40:21.595Z,10.18
2019-01-25T02:45:24.197Z,10.17
2019-01-25T02:50:26.761Z,10.17
2019-01-25T02:55:29.433Z,10.21
2019-01-25T03:00:31.962Z,10.12
2019-01-25T03:05:34.515Z,10.09
2019-01-25T03:10:37.306Z,10.09
2019-01-25T03:15:39.894Z,10.17
2019-01-25T03:20:42.618Z,10.06
2019-01-25T03:25:45.219Z,10.10
2019-01-25T03:30:47.652Z,10.06
2019-01-25T03:35:50.633Z,10.03
2019-01-25T03:40:55.118Z,10.00
2019-01-25T03:45:57.805Z,10.10
2019-01-25T03:51:00.424Z,10.14
2019-01-25T03:56:03.447Z,10.19
2019-01-25T04:01:06.080Z,10.18
2019-01-25T04:06:08.582Z,10.13
2019-01-25T04:11:11.130Z,10.10
2019-01-25T04:16:13.675Z,10.19
2019-01-25T04:21:16.278Z,10.21
2019-01-25T04:26:18.820Z,10.14
2019-01-25T04:31:21.276Z,10.13
2019-01-25T04:36:23.810Z,10.12
2019-01-25T04:41:26.381Z,10.13
2019-01-25T04:46:28.960Z,10.15
2019-01-25T04:51:31.525Z,10.15
2019-01-25T04:56:37.335Z,10.25
2019-01-25T05:01:39.839Z,10.29
2019-01-25T05:06:42.475Z,10.31
2019-01-25T05:11:44.974Z,10.27
2019-01-25T05:16:47.564Z,10.28
2019-01-25T05:21:50.151Z,10.35
2019-01-25T05:26:57.449Z,10.44
2019-01-25T05:32:04.555Z,10.43
2019-01-25T05:37:11.236Z,10.43
2019-01-25T05:42:13.703Z,10.49
2019-01-25T05:47:16.330Z,10.47
2019-01-25T05:52:20.180Z,10.45
2019-01-25T05:57:22.679Z,10.45
2019-01-25T06:02:25.284Z,10.39
2019-01-25T06:07:27.940Z,10.40
2019-01-25T06:12:30.365Z,10.39
2019-01-25T06:17:32.895Z,10.40
2019-01-25T06:22:35.600Z,10.34
2019-01-25T06:27:38.561Z,10.40
2019-01-25T06:32:41.206Z,10.44
2019-01-25T06:37:43.799Z,10.46
2019-01-25T06:42:46.231Z,10.37
2019-01-25T06:47:48.916Z,10.25
2019-01-25T06:52:51.469Z,10.13
2019-01-25T06:58:08.889Z,10.10
2019-01-25T07:03:11.549Z,10.28
2019-01-25T07:08:16.896Z,10.26
2019-01-25T07:13:19.358Z,10.31
2019-01-25T07:18:21.999Z,10.36
2019-01-25T07:23:24.394Z,10.34
2019-01-25T07:28:27.086Z,10.35
2019-01-25T07:33:29.609Z,10.36
2019-01-25T07:38:32.515Z,10.41
2019-01-25T07:43:35.141Z,10.33
2019-01-25T07:48:38.635Z,10.33
2019-01-25T07:53:41.355Z,10.30
2019-01-25T07:58:43.962Z,10.24
2019-01-25T08:03:46.614Z,10.31
2019-01-25T08:08:49.253Z,10.32
2019-01-25T08:13:51.946Z,10.26
2019-01-25T08:18:54.435Z,10.27
2019-01-25T08:23:56.944Z,10.24
2019-01-25T08:28:59.513Z,10.22
2019-01-25T08:34:02.094Z,10.10
2019-01-25T08:39:08.315Z,10.09
2019-01-25T08:44:10.915Z,10.00
2019-01-25T08:49:13.425Z,9.85
2019-01-25T08:54:16.154Z,9.87
2019-01-25T08:59:18.826Z,9.92
2019-01-25T09:04:21.514Z,10.02
2019-01-25T09:09:24.062Z,10.29
2019-01-25T09:14:26.550Z,10.70
2019-01-25T09:19:29.143Z,10.64
2019-01-25T09:24:31.652Z,10.81
2019-01-25T09:29:34.149Z,10.76
2019-01-25T09:34:36.684Z,10.65
2019-01-25T09:39:39.284Z,10.63
2019-01-25T09:44:41.934Z,10.75
2019-01-25T09:49:45.574Z,10.79
2019-01-25T09:54:48.202Z,10.86
2019-01-25T09:59:50.814Z,10.97
2019-01-25T10:04:54.065Z,11.09
2019-01-25T10:09:56.738Z,11.20
2019-01-25T10:14:59.424Z,11.26
2019-01-25T10:20:01.987Z,11.34
2019-01-25T10:25:05.795Z,11.47
2019-01-25T10:30:11.734Z,11.69
2019-01-25T10:35:14.380Z,11.75
2019-01-25T10:40:17.979Z,11.62
2019-01-25T10:45:24.813Z,11.75
2019-01-25T10:50:28.458Z,11.89
2019-01-25T10:55:31.104Z,12.03
2019-01-25T11:00:33.920Z,12.23
2019-01-25T11:05:36.581Z,12.29
2019-01-25T11:10:39.036Z,11.95
2019-01-25T11:15:41.506Z,12.04
2019-01-25T11:20:44.114Z,11.96
2019-01-25T11:25:46.670Z,11.93
2019-01-25T11:30:49.522Z,11.95
2019-01-25T11:35:52.174Z,12.04
2019-01-25T11:40:54.722Z,12.12
2019-01-25T11:45:57.490Z,12.28
2019-01-25T11:51:00.959Z,12.24
2019-01-25T11:56:04.155Z,12.19
2019-01-25T12:01:06.945Z,12.18
2019-01-25T12:06:09.691Z,12.35
2019-01-25T12:11:12.459Z,12.53
2019-01-25T12:16:15.054Z,12.30
2019-01-25T12:21:17.794Z,12.33
2019-01-25T12:26:20.654Z,12.06
2019-01-25T12:31:23.319Z,11.81
2019-01-25T12:36:25.779Z,11.95
2019-01-25T12:41:28.584Z,11.98
2019-01-25T12:46:32.129Z,11.94
2019-01-25T12:51:42.799Z,11.82
2019-01-25T12:56:45.480Z,11.94
2019-01-25T13:01:49.944Z,12.30
2019-01-25T13:06:52.474Z,12.52
2019-01-25T13:11:54.924Z,12.65
2019-01-25T13:16:57.706Z,12.63
2019-01-25T13:22:00.342Z,12.80
2019-01-25T13:27:03.154Z,12.83
2019-01-25T13:32:05.710Z,12.59
2019-01-25T13:37:08.335Z,12.66
2019-01-25T13:42:11.416Z,12.59
2019-01-25T13:47:13.954Z,12.45
2019-01-25T13:52:16.714Z,12.16
2019-01-25T13:57:19.656Z,11.99
2019-01-25T14:02:22.355Z,11.87
2019-01-25T14:07:24.927Z,11.76
2019-01-25T14:12:27.486Z,11.62
2019-01-25T14:17:30.206Z,11.55
2019-01-25T14:22:32.869Z,11.34
2019-01-25T14:27:35.467Z,11.27
2019-01-25T14:32:38.149Z,11.23
2019-01-25T14:37:40.706Z,11.18
2019-01-25T14:42:43.200Z,11.18
2019-01-25T14:47:45.729Z,11.19
2019-01-25T14:52:49.414Z,11.09
2019-01-25T14:57:52.370Z,11.17
2019-01-25T15:02:54.989Z,11.18
2019-01-25T15:07:57.430Z,11.18
2019-01-25T15:12:59.926Z,11.17
2019-01-25T15:18:02.594Z,11.23
2019-01-25T15:23:05.176Z,11.26
2019-01-25T15:28:07.764Z,11.18
2019-01-25T15:33:10.250Z,11.22
2019-01-25T15:38:12.769Z,11.18
2019-01-25T15:43:15.382Z,11.08
2019-01-25T15:48:17.989Z,11.06
2019-01-25T15:53:20.590Z,10.81
2019-01-25T15:58:23.119Z,10.82
2019-01-25T16:03:25.740Z,10.86
2019-01-25T16:08:28.546Z,10.77
2019-01-25T16:13:31.190Z,10.70
2019-01-25T16:18:33.821Z,10.66
2019-01-25T16:23:36.365Z,10.58
2019-01-25T16:28:39.044Z,10.51
2019-01-25T16:33:41.539Z,10.44
2019-01-25T16:38:44.018Z,10.42
2019-01-25T16:43:46.795Z,10.29
2019-01-25T16:48:49.434Z,10.26
2019-01-25T16:53:52.078Z,10.22
2019-01-25T16:58:54.653Z,10.19
2019-01-25T17:03:57.327Z,10.19
2019-01-25T17:09:01.566Z,10.14
2019-01-25T17:14:04.494Z,10.17
2019-01-25T17:19:07.067Z,10.20
2019-01-25T17:24:09.640Z,10.19
2019-01-25T17:29:12.185Z,10.23
2019-01-25T17:34:14.867Z,10.21
2019-01-25T17:39:17.805Z,10.13
2019-01-25T17:44:20.509Z,10.13
2019-01-25T17:49:23.159Z,10.07
2019-01-25T17:54:26.080Z,9.96
2019-01-25T17:59:28.688Z,9.92
2019-01-25T18:04:31.454Z,9.82
2019-01-25T18:09:34.129Z,9.87
2019-01-25T18:14:36.718Z,9.88
2019-01-25T18:19:39.499Z,9.90
2019-01-25T18:24:42.458Z,9.92
2019-01-25T18:29:49.542Z,9.91
2019-01-25T18:34:52.262Z,9.83
2019-01-25T18:39:54.895Z,9.76
2019-01-25T18:44:57.469Z,9.72
2019-01-25T18:50:00.192Z,9.79
2019-01-25T18:55:04.932Z,9.83
2019-01-25T19:00:11.598Z,9.69
2019-01-25T19:05:14.519Z,9.70
2019-01-25T19:10:19.763Z,9.65
2019-01-25T19:15:25.206Z,9.40
2019-01-25T19:20:28.116Z,9.11
2019-01-25T19:25:30.711Z,8.97
2019-01-25T19:30:36.199Z,8.96
2019-01-25T19:35:38.809Z,9.15
2019-01-25T19:40:41.489Z,9.40
2019-01-25T19:45:44.034Z,9.36
2019-01-25T19:50:46.690Z,9.39
2019-01-25T19:55:49.419Z,9.47
2019-01-25T20:00:52.045Z,9.42
2019-01-25T20:05:54.675Z,9.32
2019-01-25T20:10:57.495Z,9.20
2019-01-25T20:16:00.074Z,9.23
2019-01-25T20:21:03.611Z,9.22
2019-01-25T20:26:06.360Z,9.14
2019-01-25T20:31:08.955Z,8.98
2019-01-25T20:36:11.519Z,8.96
2019-01-25T20:41:14.094Z,9.13
2019-01-25T20:46:16.509Z,9.13
2019-01-25T20:51:19.118Z,9.17
2019-01-25T20:56:21.708Z,9.20
2019-01-25T21:01:24.348Z,9.17
2019-01-25T21:06:26.904Z,9.22
2019-01-25T21:11:29.385Z,9.18
2019-01-25T21:16:31.889Z,9.27
2019-01-25T21:21:34.530Z,9.17
2019-01-25T21:26:37.169Z,9.12
2019-01-25T21:31:39.679Z,8.97
2019-01-25T21:36:42.209Z,9.01
2019-01-25T21:41:44.775Z,8.96
2019-01-25T21:46:48.350Z,8.82
2019-01-25T21:51:51.118Z,8.83
2019-01-25T21:56:54.563Z,8.99
2019-01-25T22:01:57.042Z,8.92
2019-01-25T22:06:59.690Z,8.81
2019-01-25T22:12:02.393Z,8.89
2019-01-25T22:17:05.078Z,9.02
2019-01-25T22:22:07.763Z,9.06
2019-01-25T22:27:10.428Z,9.05
2019-01-25T22:32:12.967Z,8.98
2019-01-25T22:37:15.521Z,8.91
2019-01-25T22:42:18.077Z,8.62
2019-01-25T22:47:20.762Z,8.60
2019-01-25T22:52:23.310Z,8.55
2019-01-25T22:57:27.006Z,8.53
2019-01-25T23:02:29.647Z,8.60
2019-01-25T23:07:33.115Z,8.69
2019-01-25T23:12:36.111Z,8.72
2019-01-25T23:17:38.526Z,8.80
2019-01-25T23:22:41.074Z,8.94
2019-01-25T23:27:43.708Z,9.04
2019-01-25T23:32:46.310Z,8.98
2019-01-25T23:37:48.905Z,8.80
2019-01-25T23:42:51.684Z,8.77
2019-01-25T23:47:54.154Z,8.68
2019-01-25T23:52:56.694Z,8.63
2019-01-25T23:57:59.439Z,8.75
